createdAt,value
2023-03-26T00:01:46.401Z,17.30
2023-03-26T00:04:35.951Z,17.30
2023-03-26T00:07:24.286Z,17.20
2023-03-26T00:10:12.627Z,17.30
2023-03-26T00:13:00.715Z,17.30
2023-03-26T00:15:49.579Z,17.30
2023-03-26T00:18:37.709Z,17.30
2023-03-26T00:21:28.966Z,17.30
2023-03-26T00:24:17.510Z,17.20
2023-03-26T00:27:05.630Z,17.30
2023-03-26T00:29:56.223Z,17.30
2023-03-26T00:32:44.394Z,17.30
2023-03-26T00:35:43.176Z,17.30
2023-03-26T00:38:33.745Z,17.30
2023-03-26T00:41:26.952Z,17.30
2023-03-26T00:44:15.118Z,17.30
2023-03-26T00:47:03.608Z,17.30
2023-03-26T00:49:51.727Z,17.20
2023-03-26T00:52:39.735Z,17.20
2023-03-26T00:55:29.080Z,17.20
2023-03-26T00:58:17.419Z,17.40
2023-03-26T01:01:08.333Z,17.20
2023-03-26T01:04:08.064Z,17.20
2023-03-26T01:06:58.987Z,17.30
2023-03-26T01:09:50.496Z,17.20
2023-03-26T01:12:39.971Z,17.20
2023-03-26T01:15:29.875Z,17.20
2023-03-26T01:18:20.286Z,17.20
2023-03-26T01:21:09.708Z,17.20
2023-03-26T01:24:00.823Z,17.20
2023-03-26T01:27:01.535Z,17.20
2023-03-26T01:29:54.633Z,17.20
2023-03-26T01:32:52.668Z,17.20
2023-03-26T01:35:46.796Z,17.20
2023-03-26T01:38:46.523Z,17.20
2023-03-26T01:41:44.140Z,17.30
2023-03-26T01:44:39.359Z,17.30
2023-03-26T01:47:28.587Z,17.30
2023-03-26T01:50:16.972Z,17.30
2023-03-26T01:53:05.355Z,17.30
2023-03-26T01:56:06.832Z,17.30
2023-03-26T01:59:08.168Z,17.30
2023-03-26T02:02:04.692Z,17.20
2023-03-26T02:04:56.444Z,17.20
2023-03-26T02:07:50.986Z,17.20
2023-03-26T02:10:44.118Z,17.20
2023-03-26T02:13:32.729Z,17.20
2023-03-26T02:16:22.188Z,17.20
2023-03-26T02:19:15.872Z,17.20
2023-03-26T02:22:04.870Z,18.60
2023-03-26T02:24:52.901Z,17.10
2023-03-26T02:27:42.608Z,17.10
2023-03-26T02:30:30.711Z,17.20
2023-03-26T02:33:21.617Z,17.20
2023-03-26T02:36:12.495Z,17.20
2023-03-26T02:39:00.900Z,17.20
2023-03-26T02:41:48.929Z,17.20
2023-03-26T02:44:38.775Z,17.10
2023-03-26T02:47:26.853Z,17.20
2023-03-26T02:50:16.406Z,17.10
2023-03-26T02:53:04.583Z,17.20
2023-03-26T02:55:52.744Z,17.30
2023-03-26T02:58:40.843Z,17.20
2023-03-26T03:01:30.907Z,17.20
2023-03-26T03:04:19.016Z,17.20
2023-03-26T03:07:08.401Z,17.20
2023-03-26T03:09:56.414Z,17.20
2023-03-26T03:12:44.441Z,17.10
2023-03-26T03:15:32.433Z,17.10
2023-03-26T03:18:20.719Z,17.30
2023-03-26T03:21:08.882Z,17.10
2023-03-26T03:23:59.952Z,17.10
2023-03-26T03:26:50.227Z,17.10
2023-03-26T03:29:38.466Z,17.10
2023-03-26T03:32:27.705Z,17.00
2023-03-26T03:35:15.912Z,17.10
2023-03-26T03:38:03.955Z,16.90
2023-03-26T03:40:55.381Z,17.10
2023-03-26T03:43:43.375Z,17.00
2023-03-26T03:46:31.386Z,17.00
2023-03-26T03:49:19.413Z,17.00
2023-03-26T03:52:07.783Z,17.00
2023-03-26T03:54:56.381Z,17.00
2023-03-26T03:57:46.772Z,16.90
2023-03-26T04:00:34.757Z,17.00
2023-03-26T04:03:34.118Z,17.00
2023-03-26T04:06:25.213Z,17.00
2023-03-26T04:09:13.254Z,17.00
2023-03-26T04:12:01.260Z,17.00
2023-03-26T04:14:50.648Z,17.00
2023-03-26T04:17:42.557Z,17.00
2023-03-26T04:20:32.106Z,17.00
2023-03-26T04:23:21.099Z,17.00
2023-03-26T04:26:13.374Z,17.00
2023-03-26T04:29:04.434Z,17.00
2023-03-26T04:31:58.620Z,17.00
2023-03-26T04:34:47.949Z,17.00
2023-03-26T04:37:39.910Z,17.00
2023-03-26T04:40:30.616Z,17.00
2023-03-26T04:43:18.852Z,17.00
2023-03-26T04:46:07.504Z,16.90
2023-03-26T04:48:56.812Z,16.90
2023-03-26T04:51:46.697Z,16.90
2023-03-26T04:54:34.700Z,16.80
2023-03-26T04:57:27.192Z,16.80
2023-03-26T05:00:18.667Z,16.90
2023-03-26T05:03:09.771Z,16.90
2023-03-26T05:05:59.440Z,16.90
2023-03-26T05:08:47.463Z,16.70
2023-03-26T05:11:35.578Z,16.90
2023-03-26T05:14:23.603Z,16.90
2023-03-26T05:17:18.816Z,16.90
2023-03-26T05:20:08.832Z,16.90
2023-03-26T05:22:58.227Z,17.00
2023-03-26T05:25:47.131Z,17.00
2023-03-26T05:28:35.179Z,17.00
2023-03-26T05:31:23.229Z,17.10
2023-03-26T05:34:11.327Z,17.10
2023-03-26T05:36:59.396Z,17.10
2023-03-26T05:39:48.757Z,17.10
2023-03-26T05:42:37.102Z,17.10
2023-03-26T05:45:25.305Z,17.10
2023-03-26T05:48:13.319Z,17.10
2023-03-26T05:51:01.561Z,17.10
2023-03-26T05:53:49.807Z,17.10
2023-03-26T05:56:39.244Z,17.10
2023-03-26T05:59:27.662Z,17.10
2023-03-26T06:02:15.688Z,17.00
2023-03-26T06:05:04.515Z,17.00
2023-03-26T06:07:52.966Z,17.00
2023-03-26T06:10:41.366Z,17.00
2023-03-26T06:13:31.317Z,17.00
2023-03-26T06:16:21.108Z,17.00
2023-03-26T06:19:14.697Z,17.00
2023-03-26T06:22:02.808Z,17.00
2023-03-26T06:24:52.798Z,17.10
2023-03-26T06:27:40.828Z,17.00
2023-03-26T06:30:30.389Z,17.10
2023-03-26T06:33:18.852Z,17.00
2023-03-26T06:36:07.433Z,17.10
2023-03-26T06:38:55.557Z,17.10
2023-03-26T06:41:43.548Z,17.10
2023-03-26T06:44:31.652Z,17.10
2023-03-26T06:47:21.131Z,17.00
2023-03-26T06:50:11.562Z,17.00
2023-03-26T06:52:59.956Z,17.00
2023-03-26T06:55:48.237Z,17.00
2023-03-26T06:58:37.163Z,16.80
2023-03-26T07:01:25.354Z,17.00
2023-03-26T07:04:14.854Z,17.00
2023-03-26T07:07:02.965Z,17.00
2023-03-26T07:09:51.066Z,17.00
2023-03-26T07:12:39.112Z,16.90
2023-03-26T07:15:28.997Z,17.00
2023-03-26T07:18:17.111Z,17.00
2023-03-26T07:21:07.481Z,17.00
2023-03-26T07:23:56.689Z,17.00
2023-03-26T07:26:53.105Z,17.00
2023-03-26T07:29:46.868Z,17.00
2023-03-26T07:32:42.558Z,17.10
2023-03-26T07:35:37.791Z,17.00
2023-03-26T07:38:48.323Z,17.00
2023-03-26T07:41:44.896Z,17.10
2023-03-26T07:44:48.793Z,17.10
2023-03-26T07:47:37.510Z,17.10
2023-03-26T07:50:26.572Z,17.10
2023-03-26T07:53:15.518Z,17.10
2023-03-26T07:56:12.818Z,17.10
2023-03-26T07:59:10.793Z,17.10
2023-03-26T08:02:18.480Z,17.10
2023-03-26T08:05:18.972Z,17.10
2023-03-26T08:08:17.429Z,17.10
2023-03-26T08:11:20.135Z,17.10
2023-03-26T08:14:19.654Z,17.00
2023-03-26T08:17:12.461Z,17.10
2023-03-26T08:20:11.958Z,17.10
2023-03-26T08:23:06.954Z,17.10
2023-03-26T08:26:02.620Z,17.10
2023-03-26T08:29:02.172Z,17.10
2023-03-26T08:31:52.620Z,17.10
2023-03-26T08:34:41.056Z,17.20
2023-03-26T08:37:29.222Z,17.20
2023-03-26T08:40:32.299Z,17.10
2023-03-26T08:43:38.636Z,17.20
2023-03-26T08:46:49.090Z,17.20
2023-03-26T08:50:04.344Z,17.30
2023-03-26T08:53:21.234Z,17.30
2023-03-26T08:56:18.855Z,17.30
2023-03-26T08:59:42.461Z,17.30
2023-03-26T09:03:02.557Z,17.30
2023-03-26T09:06:25.250Z,17.30
2023-03-26T09:09:52.154Z,17.30
2023-03-26T09:13:15.285Z,17.30
2023-03-26T09:16:38.554Z,17.30
2023-03-26T09:19:55.179Z,17.30
2023-03-26T09:22:57.027Z,17.30
2023-03-26T09:26:02.498Z,17.30
2023-03-26T09:29:33.236Z,17.30
2023-03-26T09:32:47.098Z,17.30
2023-03-26T09:35:52.802Z,17.30
2023-03-26T09:38:44.800Z,17.30
2023-03-26T09:41:39.119Z,17.30
2023-03-26T09:45:08.929Z,17.30
2023-03-26T09:48:21.480Z,17.40
2023-03-26T09:51:37.739Z,17.30
2023-03-26T09:54:54.284Z,17.30
2023-03-26T09:58:00.950Z,17.40
2023-03-26T10:00:54.705Z,17.40
2023-03-26T10:03:54.797Z,17.40
2023-03-26T10:07:00.293Z,17.40
2023-03-26T10:09:57.853Z,17.40
2023-03-26T10:12:52.758Z,17.30
2023-03-26T10:15:58.488Z,17.30
2023-03-26T10:18:56.435Z,17.30
2023-03-26T10:21:52.776Z,17.30
2023-03-26T10:25:02.115Z,17.30
2023-03-26T10:27:59.232Z,17.40
2023-03-26T10:31:09.305Z,17.30
2023-03-26T10:34:06.613Z,17.30
2023-03-26T10:36:58.346Z,17.40
2023-03-26T10:40:17.541Z,17.40
2023-03-26T10:44:05.181Z,17.30
2023-03-26T10:47:15.503Z,17.40
2023-03-26T10:50:33.158Z,17.40
2023-03-26T10:53:31.861Z,17.40
2023-03-26T10:56:26.116Z,17.40
2023-03-26T10:59:15.792Z,17.40
2023-03-26T11:02:29.284Z,17.40
2023-03-26T11:05:40.490Z,17.40
2023-03-26T11:08:38.190Z,17.30
2023-03-26T11:11:32.761Z,17.40
2023-03-26T11:14:34.952Z,17.40
2023-03-26T11:17:39.307Z,17.40
2023-03-26T11:20:38.444Z,17.40
2023-03-26T11:23:35.624Z,17.40
2023-03-26T11:26:34.137Z,17.50
2023-03-26T11:29:41.957Z,17.50
2023-03-26T11:32:40.117Z,17.50
2023-03-26T11:35:40.792Z,17.50
2023-03-26T11:38:37.464Z,17.50
2023-03-26T11:41:28.361Z,17.50
2023-03-26T11:44:22.538Z,17.50
2023-03-26T11:47:12.920Z,17.50
2023-03-26T11:50:04.505Z,17.50
2023-03-26T11:52:52.572Z,17.50
2023-03-26T11:55:45.460Z,17.60
2023-03-26T11:58:39.522Z,17.50
2023-03-26T12:01:30.909Z,17.60
2023-03-26T12:04:21.061Z,17.60
2023-03-26T12:07:16.362Z,17.50
2023-03-26T12:10:15.499Z,17.60
2023-03-26T12:13:26.499Z,17.60
2023-03-26T12:16:16.854Z,17.50
2023-03-26T12:19:20.891Z,17.60
2023-03-26T12:22:29.833Z,17.60
2023-03-26T12:25:20.626Z,17.60
2023-03-26T12:28:19.261Z,17.60
2023-03-26T12:31:12.486Z,17.70
2023-03-26T12:34:16.224Z,17.70
2023-03-26T12:37:07.239Z,17.70
2023-03-26T12:40:14.311Z,17.80
2023-03-26T12:44:56.159Z,17.80
2023-03-26T12:47:54.832Z,17.80
2023-03-26T12:49:35.465Z,17.80
2023-03-26T12:52:47.245Z,17.90
2023-03-26T12:55:44.081Z,17.90
2023-03-26T12:59:01.866Z,17.90
2023-03-26T13:01:59.883Z,17.90
2023-03-26T13:05:06.476Z,17.90
2023-03-26T13:08:06.908Z,17.90
2023-03-26T13:11:05.190Z,17.90
2023-03-26T13:14:15.545Z,18.00
2023-03-26T13:17:09.759Z,18.00
2023-03-26T13:20:11.773Z,17.90
2023-03-26T13:23:05.898Z,17.90
2023-03-26T13:26:04.629Z,17.90
2023-03-26T13:29:04.791Z,18.00
2023-03-26T13:32:04.962Z,17.90
2023-03-26T13:35:09.900Z,17.90
2023-03-26T13:38:06.037Z,17.80
2023-03-26T13:41:02.330Z,17.80
2023-03-26T13:44:00.594Z,17.80
2023-03-26T13:46:52.800Z,17.80
2023-03-26T13:49:44.952Z,17.80
2023-03-26T13:52:39.408Z,17.80
2023-03-26T13:55:31.742Z,17.80
2023-03-26T13:58:26.991Z,17.80
2023-03-26T14:01:33.840Z,17.80
2023-03-26T14:04:27.109Z,17.80
2023-03-26T14:07:22.508Z,17.90
2023-03-26T14:10:15.966Z,17.90
2023-03-26T14:13:10.291Z,17.90
2023-03-26T14:16:03.233Z,17.90
2023-03-26T14:19:00.103Z,18.10
2023-03-26T14:21:59.025Z,17.90
2023-03-26T14:25:09.453Z,17.90
2023-03-26T14:28:16.848Z,17.90
2023-03-26T14:31:21.130Z,17.90
2023-03-26T14:34:29.219Z,17.90
2023-03-26T14:37:35.701Z,17.90
2023-03-26T14:40:29.322Z,17.90
2023-03-26T14:43:48.335Z,17.90
2023-03-26T14:46:57.315Z,17.90
2023-03-26T14:50:42.583Z,17.90
2023-03-26T14:53:34.402Z,17.80
2023-03-26T14:56:46.868Z,17.90
2023-03-26T15:00:16.893Z,17.80
2023-03-26T15:03:39.411Z,17.80
2023-03-26T15:07:00.813Z,17.90
2023-03-26T15:10:14.149Z,17.90
2023-03-26T15:13:13.296Z,17.90
2023-03-26T15:16:38.315Z,17.90
2023-03-26T15:19:53.053Z,17.90
2023-03-26T15:23:21.887Z,17.90
2023-03-26T15:26:59.214Z,17.90
2023-03-26T15:30:27.876Z,17.90
2023-03-26T15:33:58.611Z,17.90
2023-03-26T15:37:17.162Z,17.90
2023-03-26T15:40:36.246Z,17.90
2023-03-26T15:43:29.020Z,18.00
2023-03-26T15:46:31.686Z,17.90
2023-03-26T15:49:25.724Z,17.80
2023-03-26T15:52:24.962Z,17.80
2023-03-26T15:55:28.453Z,17.80
2023-03-26T15:58:23.925Z,17.80
2023-03-26T16:01:23.014Z,17.80
2023-03-26T16:04:24.916Z,17.80
2023-03-26T16:07:31.205Z,17.80
2023-03-26T16:10:29.172Z,17.80
2023-03-26T16:13:36.208Z,17.80
2023-03-26T16:16:26.077Z,17.70
2023-03-26T16:19:48.089Z,17.70
2023-03-26T16:22:42.493Z,17.80
2023-03-26T16:25:35.427Z,17.70
2023-03-26T16:28:34.801Z,17.80
2023-03-26T16:31:37.490Z,17.70
2023-03-26T16:34:30.103Z,17.70
2023-03-26T16:37:40.946Z,17.70
2023-03-26T16:40:35.839Z,17.70
2023-03-26T16:43:39.724Z,17.70
2023-03-26T16:46:35.380Z,17.70
2023-03-26T16:49:35.121Z,17.70
2023-03-26T16:52:32.947Z,17.60
2023-03-26T16:55:26.432Z,17.60
2023-03-26T16:58:30.335Z,17.50
2023-03-26T17:01:27.494Z,17.60
2023-03-26T17:04:21.488Z,17.60
2023-03-26T17:07:15.714Z,17.60
2023-03-26T17:10:14.576Z,17.60
2023-03-26T17:13:08.600Z,17.60
2023-03-26T17:16:08.769Z,17.60
2023-03-26T17:19:04.227Z,17.40
2023-03-26T17:21:59.962Z,17.60
2023-03-26T17:24:50.899Z,17.60
2023-03-26T17:27:47.083Z,17.60
2023-03-26T17:30:51.012Z,17.60
2023-03-26T17:33:41.973Z,17.60
2023-03-26T17:36:43.220Z,17.60
2023-03-26T17:40:13.087Z,17.60
2023-03-26T17:43:03.506Z,17.60
2023-03-26T17:46:02.747Z,17.60
2023-03-26T17:49:00.687Z,17.50
2023-03-26T17:51:53.487Z,17.40
2023-03-26T17:54:47.005Z,17.00
2023-03-26T17:57:43.737Z,17.40
2023-03-26T18:00:36.084Z,17.40
2023-03-26T18:03:31.124Z,17.50
2023-03-26T18:06:38.407Z,17.50
2023-03-26T18:09:41.965Z,17.60
2023-03-26T18:12:43.128Z,17.50
2023-03-26T18:15:44.507Z,17.50
2023-03-26T18:18:38.026Z,17.50
2023-03-26T18:21:32.997Z,17.40
2023-03-26T18:24:25.340Z,17.50
2023-03-26T18:27:16.480Z,17.50
2023-03-26T18:30:17.214Z,17.60
2023-03-26T18:33:13.865Z,17.60
2023-03-26T18:36:02.017Z,17.60
2023-03-26T18:38:51.761Z,17.50
2023-03-26T18:41:42.302Z,17.50
2023-03-26T18:44:30.961Z,17.50
2023-03-26T18:47:19.283Z,17.40
2023-03-26T18:50:08.961Z,17.40
2023-03-26T18:52:59.924Z,17.40
2023-03-26T18:55:51.200Z,17.40
2023-03-26T18:58:41.692Z,17.40
2023-03-26T19:01:32.455Z,17.30
2023-03-26T19:04:20.631Z,17.30
2023-03-26T19:07:13.664Z,17.30
2023-03-26T19:10:02.149Z,17.30
2023-03-26T19:12:57.615Z,17.40
2023-03-26T19:15:47.396Z,17.40
2023-03-26T19:18:40.739Z,18.70
2023-03-26T19:21:33.860Z,17.40
2023-03-26T19:24:22.655Z,17.40
2023-03-26T19:27:12.051Z,17.40
2023-03-26T19:30:01.449Z,17.50
2023-03-26T19:32:54.245Z,17.40
2023-03-26T19:35:45.341Z,17.40
2023-03-26T19:38:42.622Z,17.40
2023-03-26T19:41:33.064Z,17.40
2023-03-26T19:44:26.445Z,17.40
2023-03-26T19:47:22.031Z,17.40
2023-03-26T19:50:25.383Z,17.40
2023-03-26T19:53:24.127Z,17.50
2023-03-26T19:56:15.212Z,17.40
2023-03-26T19:59:03.493Z,17.40
2023-03-26T20:01:51.605Z,17.40
2023-03-26T20:04:41.110Z,17.30
2023-03-26T20:07:35.267Z,17.30
2023-03-26T20:10:24.255Z,17.30
2023-03-26T20:13:16.819Z,17.30
2023-03-26T20:16:10.652Z,17.30
2023-03-26T20:19:02.335Z,17.30
2023-03-26T20:21:52.728Z,17.20
2023-03-26T20:24:41.340Z,17.20
2023-03-26T20:27:29.998Z,17.20
2023-03-26T20:30:27.529Z,17.20
2023-03-26T20:33:26.950Z,17.20
2023-03-26T20:36:33.274Z,17.20
2023-03-26T20:39:26.250Z,17.20
2023-03-26T20:42:15.991Z,17.20
2023-03-26T20:45:12.361Z,17.20
2023-03-26T20:48:02.695Z,17.20
2023-03-26T20:50:51.047Z,17.20
2023-03-26T20:53:41.554Z,17.10
2023-03-26T20:56:30.929Z,17.00
2023-03-26T20:59:21.719Z,17.10
2023-03-26T21:02:11.932Z,17.00
2023-03-26T21:05:00.046Z,17.00
2023-03-26T21:07:48.560Z,17.10
2023-03-26T21:10:37.052Z,17.00
2023-03-26T21:13:35.046Z,17.00
2023-03-26T21:16:23.633Z,17.00
2023-03-26T21:19:12.367Z,17.00
2023-03-26T21:22:17.297Z,17.00
2023-03-26T21:25:17.101Z,17.00
2023-03-26T21:28:28.931Z,16.90
2023-03-26T21:31:26.471Z,17.00
2023-03-26T21:34:14.917Z,17.00
2023-03-26T21:37:03.595Z,17.00
2023-03-26T21:39:52.405Z,16.90
2023-03-26T21:42:41.078Z,17.00
2023-03-26T21:45:29.982Z,17.00
2023-03-26T21:48:19.984Z,17.00
2023-03-26T21:51:08.874Z,17.00
2023-03-26T21:53:57.367Z,17.00
2023-03-26T21:56:51.136Z,16.90
2023-03-26T21:59:47.500Z,16.90
2023-03-26T22:02:42.547Z,16.80
2023-03-26T22:05:41.221Z,16.90
2023-03-26T22:08:32.123Z,16.90
2023-03-26T22:11:20.168Z,16.90
2023-03-26T22:14:08.499Z,16.90
2023-03-26T22:16:56.714Z,16.90
2023-03-26T22:19:44.735Z,17.00
2023-03-26T22:22:34.585Z,16.80
2023-03-26T22:25:24.060Z,16.90
2023-03-26T22:28:12.352Z,16.90
2023-03-26T22:31:00.644Z,16.90
2023-03-26T22:33:49.055Z,16.90
2023-03-26T22:36:39.778Z,16.90
2023-03-26T22:39:29.798Z,16.90
2023-03-26T22:42:18.394Z,16.90
2023-03-26T22:45:07.585Z,17.00
2023-03-26T22:48:03.950Z,17.00
2023-03-26T22:50:59.877Z,16.90
2023-03-26T22:53:48.101Z,17.00
2023-03-26T22:56:37.623Z,17.00
2023-03-26T22:59:26.346Z,17.00
2023-03-26T23:02:14.425Z,17.00
2023-03-26T23:05:02.448Z,16.90
2023-03-26T23:07:51.868Z,16.90
2023-03-26T23:10:43.948Z,16.80
2023-03-26T23:13:33.383Z,16.90
2023-03-26T23:16:21.920Z,16.80
2023-03-26T23:19:10.058Z,16.90
2023-03-26T23:21:58.069Z,16.80
2023-03-26T23:24:46.090Z,16.80
2023-03-26T23:27:35.465Z,16.80
2023-03-26T23:30:25.616Z,16.60
2023-03-26T23:33:13.629Z,16.70
2023-03-26T23:36:04.213Z,16.70
2023-03-26T23:38:55.781Z,16.70
2023-03-26T23:41:43.828Z,16.70
2023-03-26T23:44:32.953Z,16.70
2023-03-26T23:47:22.309Z,16.70
2023-03-26T23:50:11.523Z,16.80
2023-03-26T23:53:00.114Z,16.70
2023-03-26T23:55:48.697Z,16.60
2023-03-26T23:58:37.528Z,16.70
